Terminal Aerodrome Forecast
Issued by NWS

Home | Current Version | Previous Version | Text Only | Print | Product List | Glossary On
Versions: 1 2 3 4 5 6 7 8 9 10 11 12 13 14
000
FTUS46 KSGX 282326
TAFCRQ
TAF
KCRQ 282326Z 2900/2924 26008KT P6SM SKC
     FM290200 VRB04KT P6SM FEW006
     FM290500 VRB03KT 2SM BR OVC003
     FM290900 00000KT 1/4SM FG VV001
     FM291500 VRB03KT 3SM BR SCT002
     FM291600 VRB03KT P6SM SKC
     FM291930 25009KT P6SM SKC=

USA.gov is the U.S. government's official web portal to all federal, state and local government web resources and services.